Details From EGGW - London Luton
To EGGD - Bristol International
Flight Number -
Tags decoded
Created
Modified
Stats Distance 97 nm / 179 km
Max Altitude 0 ft / 0 m
Waypoints 5
Social Downloads 1
Likes 0
Share VATSIM

Download

Looking for another format? Having issues loading an existing format? Contact us
Advertisement - Login to hide

Notes

Requested: EGGW CPT KENET MIMBI EGGD

Route

EGGW CPT KENET MIMBI EGGD

ID Type Via Altitude Latitude Longitude Leg Dist Tot Dist Heading (true) Name
O EGGW APT - 0 ft / 0 m 51.87463˚ -0.36845˚ - 0 nm - London Luton
CPT VOR - 0 ft / 0 m 51.49167˚ -1.21972˚ 39 nm 39 nm 234° / 234° COMPTON VOR-DME
KENET FIX - 0 ft / 0 m 51.52056˚ -1.45500˚ 8 nm 48 nm 281° / 281° -
MIMBI FIX - 0 ft / 0 m 51.54917˚ -1.69333˚ 9 nm 57 nm 281° / 281° -
O EGGD APT - 0 ft / 0 m 51.38266˚ -2.71892˚ 39 nm 96 nm 256° / 255° Bristol International

Altitude Profile

Advertisement - Login to hide

EGGW

Details ICAO EGGW (LTN)
Name London Luton
Region United Kingdom
Timezone Europe/London (UTC+0.0)
Stats Elevation 526 ft / 160 m (AMSL)
Location 51.874629° -0.368450°
Runways 1
Magnetic Variation 0.572° W

METAR

EGGW 151550Z AUTO 33014KT 9999 BKN017 04/02 Q1002

Decode

TAF

TAF EGGW 151059Z 1512/1612 33012KT 9999 SCT030 TEMPO 1512/1516 34015G27KT 8000 SHRA BKN011 PROB30 TEMPO 1516/1521 34015G25KT BKN014

Decode

Departure Runways

ID Width Length Bearing (true) Bearing (mag) Surface Threshold Offset Overrun Length
08 151 ft / 46 m 7,066 ft / 2,154 m 74.35° 74.92° Asphalt 0 ft / 0 m 200 ft / 61 m
26 151 ft / 46 m 7,066 ft / 2,154 m 254.38° 254.95° Asphalt 272 ft / 83 m 0 ft / 0 m

EGGD

Details ICAO EGGD (BRS)
Name Bristol International
Region United Kingdom
Timezone Europe/London (UTC+0.0)
Stats Elevation 622 ft / 190 m (AMSL)
Location 51.382658° -2.718918°
Runways 1
Magnetic Variation 1.350° W

METAR

EGGD 151550Z AUTO 34009KT 310V010 9999 OVC022 05/01 Q1006

Decode

TAF

TAF EGGD 151101Z 1512/1612 32009KT 9999 SCT020= TAF EGPD 151055Z 1512/1612 32012KT 9999 SCT030 TEMPO 1512/1520 34015G25KT 6000 SHRA -SHRASN BKN008 TEMPO 1520/1606 4000 SHRASN -SHSN BKN005 PROB30 TEMPO 1606/1612 6000 SHRA -SHRASN BKN008

Decode

Destination Runways

ID Width Length Bearing (true) Bearing (mag) Surface Threshold Offset Overrun Length
09 148 ft / 45 m 6,655 ft / 2,029 m 86.42° 87.77° Asphalt 0 ft / 0 m 0 ft / 0 m
27 148 ft / 45 m 6,655 ft / 2,029 m 266.44° 267.79° Asphalt 499 ft / 152 m 0 ft / 0 m

Approach Navaids

Runway Type Ident Frequency Range Bearing (true) Bearing (mag) Slope Elevation
09 Localiser IBON 110.15 MHz 18 nm / 33 km 86.40° 87.75° - 622 ft / 190 m (AMSL)
09 Glidescope IBON 110.15 MHz 10 nm / 19 km 86.43° 87.78° 3.00° 622 ft / 190 m (AMSL)
09 DME IBON 110.15 MHz 18 nm / 33 km - - - 632 ft / 193 m (AMSL)
27 Localiser IBTS 110.15 MHz 18 nm / 33 km 266.47° 267.82° - 622 ft / 190 m (AMSL)
27 Glidescope IBTS 110.15 MHz 10 nm / 19 km 266.43° 267.78° 3.00° 632 ft / 193 m (AMSL)
27 DME IBTS 110.15 MHz 18 nm / 33 km - - - 631 ft / 192 m (AMSL)

Popular Alternatives